Terminal Aerodrome Forecast
Issued by NWS Louisville, KY

Home | Current Version | Previous Version | Text Only | Print | Product List | Glossary On
Versions: 1 2 3 4 5 6 7 8 9 10 11 12 13 14 15
000
FTUS43 KLMK 250500 RRA
TAFLEX
TAF
KLEX 250544Z 2506/2606 12005KT P6SM VCSH BKN050
     FM250900 14005KT 5SM -SHRA BKN040
     FM251200 12010KT 4SM -SHRA VCTS BKN015CB
     FM251600 10008KT P6SM VCSH BKN012
      TEMPO 2516/2520 P6SM BKN009
     FM260000 08010KT P6SM VCTS BKN010CB
     FM260400 05011KT P6SM VCSH BKN010=

USA.gov is the U.S. government's official web portal to all federal, state and local government web resources and services.